sensor_id;sensor_type;location;lat;lon;timestamp;P1;durP1;ratioP1;P2;durP2;ratioP2
76063;SDS011;64762;52.006;8.424;2023-01-28T00:02:22;6.27;;;2.37;;
76063;SDS011;64762;52.006;8.424;2023-01-28T00:04:47;4.20;;;2.50;;
76063;SDS011;64762;52.006;8.424;2023-01-28T00:07:13;3.77;;;2.57;;
76063;SDS011;64762;52.006;8.424;2023-01-28T00:09:38;11.13;;;2.80;;
76063;SDS011;64762;52.006;8.424;2023-01-28T00:12:03;5.87;;;3.10;;
76063;SDS011;64762;52.006;8.424;2023-01-28T00:14:29;6.85;;;3.00;;
76063;SDS011;64762;52.006;8.424;2023-01-28T00:16:54;6.63;;;3.10;;
76063;SDS011;64762;52.006;8.424;2023-01-28T00:19:20;5.23;;;2.97;;
76063;SDS011;64762;52.006;8.424;2023-01-28T00:21:45;3.60;;;2.33;;
76063;SDS011;64762;52.006;8.424;2023-01-28T00:24:10;6.37;;;2.63;;
76063;SDS011;64762;52.006;8.424;2023-01-28T00:26:36;4.07;;;2.40;;
76063;SDS011;64762;52.006;8.424;2023-01-28T00:29:01;4.43;;;2.10;;
76063;SDS011;64762;52.006;8.424;2023-01-28T00:31:27;7.97;;;2.67;;
76063;SDS011;64762;52.006;8.424;2023-01-28T00:33:53;6.13;;;2.75;;
76063;SDS011;64762;52.006;8.424;2023-01-28T00:36:19;4.00;;;2.42;;
76063;SDS011;64762;52.006;8.424;2023-01-28T00:38:52;6.50;;;2.70;;
76063;SDS011;64762;52.006;8.424;2023-01-28T00:41:20;4.78;;;3.05;;
76063;SDS011;64762;52.006;8.424;2023-01-28T00:43:46;6.50;;;2.75;;
76063;SDS011;64762;52.006;8.424;2023-01-28T00:46:12;4.25;;;2.80;;
76063;SDS011;64762;52.006;8.424;2023-01-28T00:48:38;4.00;;;2.08;;
76063;SDS011;64762;52.006;8.424;2023-01-28T00:51:04;6.30;;;2.28;;
76063;SDS011;64762;52.006;8.424;2023-01-28T00:53:30;4.68;;;2.38;;
76063;SDS011;64762;52.006;8.424;2023-01-28T00:55:55;4.75;;;2.90;;
76063;SDS011;64762;52.006;8.424;2023-01-28T00:58:21;4.45;;;2.60;;
76063;SDS011;64762;52.006;8.424;2023-01-28T01:00:49;5.55;;;2.67;;
76063;SDS011;64762;52.006;8.424;2023-01-28T01:03:15;3.90;;;2.60;;
76063;SDS011;64762;52.006;8.424;2023-01-28T01:05:41;4.97;;;2.47;;
76063;SDS011;64762;52.006;8.424;2023-01-28T01:08:07;4.20;;;2.60;;
76063;SDS011;64762;52.006;8.424;2023-01-28T01:10:32;4.05;;;2.10;;
76063;SDS011;64762;52.006;8.424;2023-01-28T01:12:58;8.73;;;2.75;;
76063;SDS011;64762;52.006;8.424;2023-01-28T01:15:23;4.37;;;2.70;;
76063;SDS011;64762;52.006;8.424;2023-01-28T01:17:49;4.80;;;2.97;;
76063;SDS011;64762;52.006;8.424;2023-01-28T01:20:18;5.07;;;2.60;;
76063;SDS011;64762;52.006;8.424;2023-01-28T01:22:45;4.30;;;2.67;;
76063;SDS011;64762;52.006;8.424;2023-01-28T01:25:11;4.87;;;2.87;;
76063;SDS011;64762;52.006;8.424;2023-01-28T01:27:37;4.93;;;3.22;;
76063;SDS011;64762;52.006;8.424;2023-01-28T01:30:03;5.43;;;2.50;;
76063;SDS011;64762;52.006;8.424;2023-01-28T01:32:29;4.47;;;2.88;;
76063;SDS011;64762;52.006;8.424;2023-01-28T01:34:55;5.85;;;2.58;;
76063;SDS011;64762;52.006;8.424;2023-01-28T01:37:20;4.43;;;2.70;;
76063;SDS011;64762;52.006;8.424;2023-01-28T01:39:45;4.27;;;2.83;;
76063;SDS011;64762;52.006;8.424;2023-01-28T01:42:11;5.72;;;3.10;;
76063;SDS011;64762;52.006;8.424;2023-01-28T01:47:24;5.40;;;3.40;;
76063;SDS011;64762;52.006;8.424;2023-01-28T01:49:51;5.38;;;2.72;;
76063;SDS011;64762;52.006;8.424;2023-01-28T01:52:17;4.10;;;2.72;;
76063;SDS011;64762;52.006;8.424;2023-01-28T01:54:46;4.20;;;2.35;;
76063;SDS011;64762;52.006;8.424;2023-01-28T01:57:15;5.13;;;3.03;;
76063;SDS011;64762;52.006;8.424;2023-01-28T01:59:42;8.52;;;2.60;;
76063;SDS011;64762;52.006;8.424;2023-01-28T02:02:08;4.15;;;2.80;;
76063;SDS011;64762;52.006;8.424;2023-01-28T02:04:36;4.57;;;2.63;;
76063;SDS011;64762;52.006;8.424;2023-01-28T02:07:03;5.97;;;3.13;;
76063;SDS011;64762;52.006;8.424;2023-01-28T02:09:30;6.18;;;3.47;;
76063;SDS011;64762;52.006;8.424;2023-01-28T02:12:01;7.03;;;2.85;;
76063;SDS011;64762;52.006;8.424;2023-01-28T02:14:28;4.65;;;2.50;;
76063;SDS011;64762;52.006;8.424;2023-01-28T02:16:56;6.13;;;3.05;;
76063;SDS011;64762;52.006;8.424;2023-01-28T02:19:23;4.75;;;3.10;;
76063;SDS011;64762;52.006;8.424;2023-01-28T02:27:36;5.60;;;2.90;;
76063;SDS011;64762;52.006;8.424;2023-01-28T02:30:27;6.30;;;2.95;;
76063;SDS011;64762;52.006;8.424;2023-01-28T02:33:01;3.90;;;2.22;;
76063;SDS011;64762;52.006;8.424;2023-01-28T02:35:36;3.85;;;2.30;;
76063;SDS011;64762;52.006;8.424;2023-01-28T02:38:05;3.80;;;2.33;;
76063;SDS011;64762;52.006;8.424;2023-01-28T02:40:35;5.00;;;2.63;;
76063;SDS011;64762;52.006;8.424;2023-01-28T02:43:29;4.47;;;2.38;;
76063;SDS011;64762;52.006;8.424;2023-01-28T02:45:57;7.15;;;3.33;;
76063;SDS011;64762;52.006;8.424;2023-01-28T02:48:42;5.43;;;2.63;;
76063;SDS011;64762;52.006;8.424;2023-01-28T02:51:20;6.60;;;3.47;;
76063;SDS011;64762;52.006;8.424;2023-01-28T02:53:58;5.47;;;3.20;;
76063;SDS011;64762;52.006;8.424;2023-01-28T02:56:41;5.40;;;2.90;;
76063;SDS011;64762;52.006;8.424;2023-01-28T02:59:13;7.28;;;3.45;;
76063;SDS011;64762;52.006;8.424;2023-01-28T03:02:26;4.85;;;3.22;;
76063;SDS011;64762;52.006;8.424;2023-01-28T03:05:02;7.32;;;3.40;;
76063;SDS011;64762;52.006;8.424;2023-01-28T03:07:30;6.68;;;3.38;;
76063;SDS011;64762;52.006;8.424;2023-01-28T03:09:59;4.85;;;3.00;;
76063;SDS011;64762;52.006;8.424;2023-01-28T03:12:28;5.20;;;3.05;;
76063;SDS011;64762;52.006;8.424;2023-01-28T03:15:23;6.38;;;2.65;;
76063;SDS011;64762;52.006;8.424;2023-01-28T03:23:47;4.65;;;2.72;;
76063;SDS011;64762;52.006;8.424;2023-01-28T03:26:34;6.82;;;2.63;;
76063;SDS011;64762;52.006;8.424;2023-01-28T03:29:20;7.20;;;3.33;;
76063;SDS011;64762;52.006;8.424;2023-01-28T03:32:06;6.13;;;3.00;;
76063;SDS011;64762;52.006;8.424;2023-01-28T03:34:50;4.20;;;2.70;;
76063;SDS011;64762;52.006;8.424;2023-01-28T03:37:35;4.32;;;2.60;;
76063;SDS011;64762;52.006;8.424;2023-01-28T03:40:01;6.83;;;3.50;;
76063;SDS011;64762;52.006;8.424;2023-01-28T03:42:29;4.93;;;3.08;;
76063;SDS011;64762;52.006;8.424;2023-01-28T03:44:54;4.00;;;2.47;;
76063;SDS011;64762;52.006;8.424;2023-01-28T03:47:22;5.30;;;3.00;;
76063;SDS011;64762;52.006;8.424;2023-01-28T03:49:49;4.85;;;2.50;;
76063;SDS011;64762;52.006;8.424;2023-01-28T03:52:16;4.80;;;2.88;;
76063;SDS011;64762;52.006;8.424;2023-01-28T03:54:45;4.95;;;2.85;;
76063;SDS011;64762;52.006;8.424;2023-01-28T03:57:24;4.97;;;2.60;;
76063;SDS011;64762;52.006;8.424;2023-01-28T03:59:50;4.63;;;3.00;;
76063;SDS011;64762;52.006;8.424;2023-01-28T04:02:17;6.38;;;3.33;;
76063;SDS011;64762;52.006;8.424;2023-01-28T04:04:43;5.82;;;3.70;;
76063;SDS011;64762;52.006;8.424;2023-01-28T04:07:09;5.03;;;3.23;;
76063;SDS011;64762;52.006;8.424;2023-01-28T04:09:35;6.05;;;2.45;;
76063;SDS011;64762;52.006;8.424;2023-01-28T04:12:00;4.45;;;2.60;;
76063;SDS011;64762;52.006;8.424;2023-01-28T04:14:26;5.23;;;3.40;;
76063;SDS011;64762;52.006;8.424;2023-01-28T04:16:51;7.35;;;2.80;;
76063;SDS011;64762;52.006;8.424;2023-01-28T04:19:19;5.03;;;2.72;;
76063;SDS011;64762;52.006;8.424;2023-01-28T04:21:44;5.57;;;3.03;;
76063;SDS011;64762;52.006;8.424;2023-01-28T04:24:10;4.03;;;2.80;;
76063;SDS011;64762;52.006;8.424;2023-01-28T04:26:35;7.17;;;3.57;;
76063;SDS011;64762;52.006;8.424;2023-01-28T04:29:01;5.90;;;3.43;;
76063;SDS011;64762;52.006;8.424;2023-01-28T04:31:26;6.70;;;3.85;;
76063;SDS011;64762;52.006;8.424;2023-01-28T04:33:51;7.00;;;3.13;;
76063;SDS011;64762;52.006;8.424;2023-01-28T04:36:17;4.53;;;2.92;;
76063;SDS011;64762;52.006;8.424;2023-01-28T04:38:42;4.97;;;3.10;;
76063;SDS011;64762;52.006;8.424;2023-01-28T04:41:07;6.27;;;3.70;;
76063;SDS011;64762;52.006;8.424;2023-01-28T04:43:33;7.30;;;3.60;;
76063;SDS011;64762;52.006;8.424;2023-01-28T04:45:58;5.38;;;3.03;;
76063;SDS011;64762;52.006;8.424;2023-01-28T04:48:23;7.93;;;3.80;;
76063;SDS011;64762;52.006;8.424;2023-01-28T04:50:49;7.67;;;3.00;;
76063;SDS011;64762;52.006;8.424;2023-01-28T04:53:14;5.90;;;3.37;;
76063;SDS011;64762;52.006;8.424;2023-01-28T04:55:39;5.13;;;3.17;;
76063;SDS011;64762;52.006;8.424;2023-01-28T04:58:05;5.47;;;3.40;;
76063;SDS011;64762;52.006;8.424;2023-01-28T05:00:30;6.87;;;3.27;;
76063;SDS011;64762;52.006;8.424;2023-01-28T05:02:55;6.60;;;3.13;;
76063;SDS011;64762;52.006;8.424;2023-01-28T05:05:20;6.80;;;3.20;;
76063;SDS011;64762;52.006;8.424;2023-01-28T05:07:53;4.77;;;3.33;;
76063;SDS011;64762;52.006;8.424;2023-01-28T05:10:19;5.93;;;3.20;;
76063;SDS011;64762;52.006;8.424;2023-01-28T05:12:45;5.68;;;3.33;;
76063;SDS011;64762;52.006;8.424;2023-01-28T05:15:11;4.93;;;3.30;;
76063;SDS011;64762;52.006;8.424;2023-01-28T05:17:36;7.30;;;3.20;;
76063;SDS011;64762;52.006;8.424;2023-01-28T05:20:02;5.97;;;2.93;;
76063;SDS011;64762;52.006;8.424;2023-01-28T05:22:28;5.30;;;3.00;;
76063;SDS011;64762;52.006;8.424;2023-01-28T05:24:53;7.43;;;3.50;;
76063;SDS011;64762;52.006;8.424;2023-01-28T05:27:18;5.93;;;3.23;;
76063;SDS011;64762;52.006;8.424;2023-01-28T05:29:44;6.87;;;3.93;;
76063;SDS011;64762;52.006;8.424;2023-01-28T05:32:09;8.87;;;3.83;;
76063;SDS011;64762;52.006;8.424;2023-01-28T05:34:34;5.10;;;3.53;;
76063;SDS011;64762;52.006;8.424;2023-01-28T05:37:00;5.57;;;3.45;;
76063;SDS011;64762;52.006;8.424;2023-01-28T05:39:25;6.40;;;3.90;;
76063;SDS011;64762;52.006;8.424;2023-01-28T05:41:50;6.17;;;3.70;;
76063;SDS011;64762;52.006;8.424;2023-01-28T05:44:15;6.37;;;3.57;;
76063;SDS011;64762;52.006;8.424;2023-01-28T05:46:41;8.17;;;4.30;;
76063;SDS011;64762;52.006;8.424;2023-01-28T05:49:09;6.28;;;3.90;;
76063;SDS011;64762;52.006;8.424;2023-01-28T05:51:37;7.60;;;3.47;;
76063;SDS011;64762;52.006;8.424;2023-01-28T05:54:04;7.63;;;3.55;;
76063;SDS011;64762;52.006;8.424;2023-01-28T05:56:30;7.07;;;3.60;;
76063;SDS011;64762;52.006;8.424;2023-01-28T05:58:55;6.20;;;3.63;;
76063;SDS011;64762;52.006;8.424;2023-01-28T06:01:20;6.27;;;3.43;;
76063;SDS011;64762;52.006;8.424;2023-01-28T06:03:46;6.93;;;3.43;;
76063;SDS011;64762;52.006;8.424;2023-01-28T06:06:11;5.57;;;3.30;;
76063;SDS011;64762;52.006;8.424;2023-01-28T06:08:36;4.53;;;2.80;;
76063;SDS011;64762;52.006;8.424;2023-01-28T06:11:02;6.10;;;3.20;;
76063;SDS011;64762;52.006;8.424;2023-01-28T06:13:27;6.15;;;4.00;;
76063;SDS011;64762;52.006;8.424;2023-01-28T06:15:52;6.33;;;3.40;;
76063;SDS011;64762;52.006;8.424;2023-01-28T06:18:18;8.90;;;3.93;;
76063;SDS011;64762;52.006;8.424;2023-01-28T06:20:43;5.90;;;3.50;;
76063;SDS011;64762;52.006;8.424;2023-01-28T06:23:08;6.17;;;3.53;;
76063;SDS011;64762;52.006;8.424;2023-01-28T06:25:34;7.38;;;3.88;;
76063;SDS011;64762;52.006;8.424;2023-01-28T06:27:59;9.07;;;3.60;;
76063;SDS011;64762;52.006;8.424;2023-01-28T06:30:24;7.20;;;3.90;;
76063;SDS011;64762;52.006;8.424;2023-01-28T06:32:53;9.07;;;3.70;;
76063;SDS011;64762;52.006;8.424;2023-01-28T06:35:19;9.80;;;3.70;;
76063;SDS011;64762;52.006;8.424;2023-01-28T06:37:44;7.67;;;4.17;;
76063;SDS011;64762;52.006;8.424;2023-01-28T06:40:10;7.70;;;3.85;;
76063;SDS011;64762;52.006;8.424;2023-01-28T06:42:36;7.05;;;4.22;;
76063;SDS011;64762;52.006;8.424;2023-01-28T06:45:01;8.30;;;3.93;;
76063;SDS011;64762;52.006;8.424;2023-01-28T06:47:26;7.68;;;3.95;;
76063;SDS011;64762;52.006;8.424;2023-01-28T06:49:52;5.77;;;4.00;;
76063;SDS011;64762;52.006;8.424;2023-01-28T06:52:17;8.47;;;4.07;;
76063;SDS011;64762;52.006;8.424;2023-01-28T06:54:42;13.20;;;4.10;;
76063;SDS011;64762;52.006;8.424;2023-01-28T06:57:08;6.07;;;3.60;;
76063;SDS011;64762;52.006;8.424;2023-01-28T06:59:33;7.27;;;3.80;;
76063;SDS011;64762;52.006;8.424;2023-01-28T07:01:58;6.80;;;3.70;;
76063;SDS011;64762;52.006;8.424;2023-01-28T07:04:23;8.70;;;3.60;;
76063;SDS011;64762;52.006;8.424;2023-01-28T07:06:49;6.27;;;3.57;;
76063;SDS011;64762;52.006;8.424;2023-01-28T07:09:14;6.23;;;3.50;;
76063;SDS011;64762;52.006;8.424;2023-01-28T07:11:39;6.40;;;3.93;;
76063;SDS011;64762;52.006;8.424;2023-01-28T07:14:05;5.47;;;3.25;;
76063;SDS011;64762;52.006;8.424;2023-01-28T07:16:30;10.85;;;3.97;;
76063;SDS011;64762;52.006;8.424;2023-01-28T07:18:56;7.93;;;3.90;;
76063;SDS011;64762;52.006;8.424;2023-01-28T07:21:21;6.63;;;3.90;;
76063;SDS011;64762;52.006;8.424;2023-01-28T07:23:46;6.27;;;3.67;;
76063;SDS011;64762;52.006;8.424;2023-01-28T07:26:12;6.77;;;3.63;;
76063;SDS011;64762;52.006;8.424;2023-01-28T07:28:37;6.10;;;3.80;;
76063;SDS011;64762;52.006;8.424;2023-01-28T07:31:02;7.30;;;3.87;;
76063;SDS011;64762;52.006;8.424;2023-01-28T07:33:28;6.23;;;3.83;;
76063;SDS011;64762;52.006;8.424;2023-01-28T07:35:53;7.13;;;3.87;;
76063;SDS011;64762;52.006;8.424;2023-01-28T07:38:18;8.53;;;3.97;;
76063;SDS011;64762;52.006;8.424;2023-01-28T07:40:44;8.33;;;3.97;;
76063;SDS011;64762;52.006;8.424;2023-01-28T07:43:09;6.07;;;4.03;;
76063;SDS011;64762;52.006;8.424;2023-01-28T07:45:35;8.32;;;3.92;;
76063;SDS011;64762;52.006;8.424;2023-01-28T07:48:02;5.32;;;3.40;;
76063;SDS011;64762;52.006;8.424;2023-01-28T07:50:29;6.30;;;3.35;;
76063;SDS011;64762;52.006;8.424;2023-01-28T07:52:55;8.43;;;4.10;;
76063;SDS011;64762;52.006;8.424;2023-01-28T07:55:21;6.32;;;3.58;;
76063;SDS011;64762;52.006;8.424;2023-01-28T07:57:47;6.15;;;3.65;;
76063;SDS011;64762;52.006;8.424;2023-01-28T08:00:16;8.02;;;4.03;;
76063;SDS011;64762;52.006;8.424;2023-01-28T08:02:42;7.43;;;4.15;;
76063;SDS011;64762;52.006;8.424;2023-01-28T08:05:13;7.47;;;4.03;;
76063;SDS011;64762;52.006;8.424;2023-01-28T08:07:42;7.18;;;4.10;;
76063;SDS011;64762;52.006;8.424;2023-01-28T08:10:07;6.32;;;3.67;;
76063;SDS011;64762;52.006;8.424;2023-01-28T08:12:34;8.63;;;3.80;;
76063;SDS011;64762;52.006;8.424;2023-01-28T08:14:59;6.47;;;3.73;;
76063;SDS011;64762;52.006;8.424;2023-01-28T08:17:24;8.50;;;4.28;;
76063;SDS011;64762;52.006;8.424;2023-01-28T08:19:50;7.10;;;4.13;;
76063;SDS011;64762;52.006;8.424;2023-01-28T08:22:15;7.23;;;3.53;;
76063;SDS011;64762;52.006;8.424;2023-01-28T08:24:40;8.90;;;4.60;;
76063;SDS011;64762;52.006;8.424;2023-01-28T08:27:06;7.00;;;4.67;;
76063;SDS011;64762;52.006;8.424;2023-01-28T08:29:31;7.23;;;4.47;;
76063;SDS011;64762;52.006;8.424;2023-01-28T08:31:57;6.35;;;3.78;;
76063;SDS011;64762;52.006;8.424;2023-01-28T08:34:22;6.67;;;3.70;;
76063;SDS011;64762;52.006;8.424;2023-01-28T08:36:47;5.93;;;3.40;;
76063;SDS011;64762;52.006;8.424;2023-01-28T08:39:13;6.97;;;4.10;;
76063;SDS011;64762;52.006;8.424;2023-01-28T08:41:38;10.07;;;3.53;;
76063;SDS011;64762;52.006;8.424;2023-01-28T08:44:03;5.43;;;3.47;;
76063;SDS011;64762;52.006;8.424;2023-01-28T08:46:29;10.50;;;3.88;;
76063;SDS011;64762;52.006;8.424;2023-01-28T08:48:54;7.80;;;4.43;;
76063;SDS011;64762;52.006;8.424;2023-01-28T08:51:19;7.33;;;3.90;;
76063;SDS011;64762;52.006;8.424;2023-01-28T08:53:45;7.27;;;4.63;;
76063;SDS011;64762;52.006;8.424;2023-01-28T08:56:10;6.17;;;4.00;;
76063;SDS011;64762;52.006;8.424;2023-01-28T08:58:35;6.37;;;3.60;;
76063;SDS011;64762;52.006;8.424;2023-01-28T09:01:04;7.10;;;4.25;;
76063;SDS011;64762;52.006;8.424;2023-01-28T09:03:30;7.72;;;4.40;;
76063;SDS011;64762;52.006;8.424;2023-01-28T09:05:59;6.37;;;4.20;;
76063;SDS011;64762;52.006;8.424;2023-01-28T09:08:28;6.75;;;3.60;;
76063;SDS011;64762;52.006;8.424;2023-01-28T09:10:54;6.57;;;4.17;;
76063;SDS011;64762;52.006;8.424;2023-01-28T09:13:23;7.65;;;3.80;;
76063;SDS011;64762;52.006;8.424;2023-01-28T09:15:49;6.95;;;4.30;;
76063;SDS011;64762;52.006;8.424;2023-01-28T09:18:15;8.38;;;4.38;;
76063;SDS011;64762;52.006;8.424;2023-01-28T09:20:41;5.93;;;3.92;;
76063;SDS011;64762;52.006;8.424;2023-01-28T09:23:06;6.23;;;4.00;;
76063;SDS011;64762;52.006;8.424;2023-01-28T09:25:31;8.17;;;4.90;;
76063;SDS011;64762;52.006;8.424;2023-01-28T09:27:57;9.03;;;4.97;;
76063;SDS011;64762;52.006;8.424;2023-01-28T09:30:22;7.40;;;4.28;;
76063;SDS011;64762;52.006;8.424;2023-01-28T09:32:49;6.63;;;4.22;;
76063;SDS011;64762;52.006;8.424;2023-01-28T09:35:15;8.27;;;4.57;;
76063;SDS011;64762;52.006;8.424;2023-01-28T09:37:42;8.48;;;4.50;;
76063;SDS011;64762;52.006;8.424;2023-01-28T09:40:10;8.50;;;4.03;;
76063;SDS011;64762;52.006;8.424;2023-01-28T09:42:58;8.85;;;4.50;;
76063;SDS011;64762;52.006;8.424;2023-01-28T09:45:41;11.30;;;5.45;;
76063;SDS011;64762;52.006;8.424;2023-01-28T09:48:14;8.35;;;5.03;;
76063;SDS011;64762;52.006;8.424;2023-01-28T09:50:43;7.70;;;4.80;;
76063;SDS011;64762;52.006;8.424;2023-01-28T09:53:24;8.82;;;4.72;;
76063;SDS011;64762;52.006;8.424;2023-01-28T09:55:57;7.82;;;4.65;;
76063;SDS011;64762;52.006;8.424;2023-01-28T09:58:26;7.93;;;4.15;;
76063;SDS011;64762;52.006;8.424;2023-01-28T10:03:32;8.30;;;4.15;;
76063;SDS011;64762;52.006;8.424;2023-01-28T10:06:52;8.20;;;5.38;;
76063;SDS011;64762;52.006;8.424;2023-01-28T10:14:50;9.93;;;4.57;;
76063;SDS011;64762;52.006;8.424;2023-01-28T10:17:44;9.40;;;5.88;;
76063;SDS011;64762;52.006;8.424;2023-01-28T10:20:19;11.25;;;6.20;;
76063;SDS011;64762;52.006;8.424;2023-01-28T10:22:54;9.48;;;5.53;;
76063;SDS011;64762;52.006;8.424;2023-01-28T10:25:21;8.98;;;4.22;;
76063;SDS011;64762;52.006;8.424;2023-01-28T10:27:49;6.95;;;3.90;;
76063;SDS011;64762;52.006;8.424;2023-01-28T10:32:44;8.27;;;5.03;;
76063;SDS011;64762;52.006;8.424;2023-01-28T10:35:32;9.40;;;4.40;;
76063;SDS011;64762;52.006;8.424;2023-01-28T10:38:08;5.90;;;4.38;;
76063;SDS011;64762;52.006;8.424;2023-01-28T10:40:36;19.23;;;8.10;;
76063;SDS011;64762;52.006;8.424;2023-01-28T10:43:01;15.53;;;6.40;;
76063;SDS011;64762;52.006;8.424;2023-01-28T10:45:31;9.27;;;5.00;;
76063;SDS011;64762;52.006;8.424;2023-01-28T10:50:51;8.75;;;4.28;;
76063;SDS011;64762;52.006;8.424;2023-01-28T10:53:17;6.80;;;3.92;;
76063;SDS011;64762;52.006;8.424;2023-01-28T10:55:47;7.00;;;4.45;;
76063;SDS011;64762;52.006;8.424;2023-01-28T10:58:14;7.40;;;4.07;;
76063;SDS011;64762;52.006;8.424;2023-01-28T11:00:42;6.97;;;4.30;;
76063;SDS011;64762;52.006;8.424;2023-01-28T11:03:15;8.67;;;4.50;;
76063;SDS011;64762;52.006;8.424;2023-01-28T11:05:48;8.50;;;5.38;;
76063;SDS011;64762;52.006;8.424;2023-01-28T11:08:15;6.10;;;4.32;;
76063;SDS011;64762;52.006;8.424;2023-01-28T11:10:42;5.18;;;3.35;;
76063;SDS011;64762;52.006;8.424;2023-01-28T11:13:15;6.43;;;4.07;;
76063;SDS011;64762;52.006;8.424;2023-01-28T11:18:17;6.03;;;4.35;;
76063;SDS011;64762;52.006;8.424;2023-01-28T11:20:48;7.88;;;4.55;;
76063;SDS011;64762;52.006;8.424;2023-01-28T11:23:50;8.90;;;4.25;;
76063;SDS011;64762;52.006;8.424;2023-01-28T11:26:35;10.90;;;4.70;;
76063;SDS011;64762;52.006;8.424;2023-01-28T11:29:01;9.13;;;4.63;;
76063;SDS011;64762;52.006;8.424;2023-01-28T11:31:27;8.80;;;4.40;;
76063;SDS011;64762;52.006;8.424;2023-01-28T11:33:54;9.23;;;4.38;;
76063;SDS011;64762;52.006;8.424;2023-01-28T11:36:31;7.40;;;4.30;;
76063;SDS011;64762;52.006;8.424;2023-01-28T11:38:57;6.88;;;4.50;;
76063;SDS011;64762;52.006;8.424;2023-01-28T11:41:33;7.18;;;4.72;;
76063;SDS011;64762;52.006;8.424;2023-01-28T11:44:04;8.52;;;4.75;;
76063;SDS011;64762;52.006;8.424;2023-01-28T11:46:47;11.90;;;5.57;;
76063;SDS011;64762;52.006;8.424;2023-01-28T11:51:47;7.88;;;3.92;;
76063;SDS011;64762;52.006;8.424;2023-01-28T11:56:55;9.68;;;5.43;;
76063;SDS011;64762;52.006;8.424;2023-01-28T11:59:50;6.55;;;4.63;;
76063;SDS011;64762;52.006;8.424;2023-01-28T12:05:18;6.95;;;4.50;;
76063;SDS011;64762;52.006;8.424;2023-01-28T12:13:18;7.72;;;4.63;;
76063;SDS011;64762;52.006;8.424;2023-01-28T12:24:09;9.13;;;4.95;;
76063;SDS011;64762;52.006;8.424;2023-01-28T12:29:18;6.50;;;4.55;;
76063;SDS011;64762;52.006;8.424;2023-01-28T12:31:54;7.45;;;5.00;;
76063;SDS011;64762;52.006;8.424;2023-01-28T12:34:43;7.50;;;4.78;;
76063;SDS011;64762;52.006;8.424;2023-01-28T12:40:30;8.05;;;4.53;;
76063;SDS011;64762;52.006;8.424;2023-01-28T12:43:04;11.48;;;5.30;;
76063;SDS011;64762;52.006;8.424;2023-01-28T12:48:10;9.80;;;4.38;;
76063;SDS011;64762;52.006;8.424;2023-01-28T12:50:40;5.82;;;4.30;;
76063;SDS011;64762;52.006;8.424;2023-01-28T12:53:34;7.18;;;4.50;;
76063;SDS011;64762;52.006;8.424;2023-01-28T13:01:16;7.57;;;4.93;;
76063;SDS011;64762;52.006;8.424;2023-01-28T13:06:28;8.52;;;4.68;;
76063;SDS011;64762;52.006;8.424;2023-01-28T13:08:57;7.18;;;4.53;;
76063;SDS011;64762;52.006;8.424;2023-01-28T13:11:25;6.50;;;4.10;;
76063;SDS011;64762;52.006;8.424;2023-01-28T13:13:56;8.20;;;4.78;;
76063;SDS011;64762;52.006;8.424;2023-01-28T13:16:22;10.07;;;5.07;;
76063;SDS011;64762;52.006;8.424;2023-01-28T13:18:47;6.70;;;5.10;;
76063;SDS011;64762;52.006;8.424;2023-01-28T13:23:51;6.15;;;4.40;;
76063;SDS011;64762;52.006;8.424;2023-01-28T13:31:43;9.02;;;4.57;;
76063;SDS011;64762;52.006;8.424;2023-01-28T13:36:58;8.63;;;4.53;;
76063;SDS011;64762;52.006;8.424;2023-01-28T13:39:26;6.22;;;4.57;;
76063;SDS011;64762;52.006;8.424;2023-01-28T13:41:52;9.82;;;4.75;;
76063;SDS011;64762;52.006;8.424;2023-01-28T13:44:41;8.57;;;5.00;;
76063;SDS011;64762;52.006;8.424;2023-01-28T13:49:48;7.28;;;4.78;;
76063;SDS011;64762;52.006;8.424;2023-01-28T13:52:22;8.73;;;4.85;;
76063;SDS011;64762;52.006;8.424;2023-01-28T13:54:54;8.07;;;4.70;;
76063;SDS011;64762;52.006;8.424;2023-01-28T14:10:53;10.65;;;5.40;;
76063;SDS011;64762;52.006;8.424;2023-01-28T14:16:39;7.80;;;5.22;;
76063;SDS011;64762;52.006;8.424;2023-01-28T14:19:09;7.40;;;4.80;;
76063;SDS011;64762;52.006;8.424;2023-01-28T14:21:37;6.63;;;5.20;;
76063;SDS011;64762;52.006;8.424;2023-01-28T14:24:02;9.00;;;5.27;;
76063;SDS011;64762;52.006;8.424;2023-01-28T14:26:31;7.97;;;5.30;;
76063;SDS011;64762;52.006;8.424;2023-01-28T14:31:40;8.73;;;5.10;;
76063;SDS011;64762;52.006;8.424;2023-01-28T14:34:18;8.35;;;4.85;;
76063;SDS011;64762;52.006;8.424;2023-01-28T14:36:47;8.30;;;4.68;;
76063;SDS011;64762;52.006;8.424;2023-01-28T14:39:15;8.07;;;4.65;;
76063;SDS011;64762;52.006;8.424;2023-01-28T14:41:41;7.88;;;4.82;;
76063;SDS011;64762;52.006;8.424;2023-01-28T14:44:08;8.38;;;5.30;;
76063;SDS011;64762;52.006;8.424;2023-01-28T14:49:21;8.95;;;5.13;;
76063;SDS011;64762;52.006;8.424;2023-01-28T14:52:20;10.05;;;5.55;;
76063;SDS011;64762;52.006;8.424;2023-01-28T14:55:00;10.25;;;5.20;;
76063;SDS011;64762;52.006;8.424;2023-01-28T14:57:54;10.10;;;5.53;;
76063;SDS011;64762;52.006;8.424;2023-01-28T15:00:23;9.65;;;5.55;;
76063;SDS011;64762;52.006;8.424;2023-01-28T15:02:53;8.10;;;5.40;;
76063;SDS011;64762;52.006;8.424;2023-01-28T15:05:25;10.27;;;5.40;;
76063;SDS011;64762;52.006;8.424;2023-01-28T15:07:52;11.43;;;5.97;;
76063;SDS011;64762;52.006;8.424;2023-01-28T15:10:25;10.40;;;5.80;;
76063;SDS011;64762;52.006;8.424;2023-01-28T15:13:02;8.18;;;5.13;;
76063;SDS011;64762;52.006;8.424;2023-01-28T15:15:31;8.88;;;4.78;;
76063;SDS011;64762;52.006;8.424;2023-01-28T15:17:59;8.77;;;5.60;;
76063;SDS011;64762;52.006;8.424;2023-01-28T15:20:27;9.85;;;5.45;;
76063;SDS011;64762;52.006;8.424;2023-01-28T15:22:53;10.20;;;5.72;;
76063;SDS011;64762;52.006;8.424;2023-01-28T15:25:22;8.98;;;5.53;;
76063;SDS011;64762;52.006;8.424;2023-01-28T15:27:49;9.82;;;6.00;;
76063;SDS011;64762;52.006;8.424;2023-01-28T15:30:25;13.38;;;6.80;;
76063;SDS011;64762;52.006;8.424;2023-01-28T15:33:00;11.38;;;6.72;;
76063;SDS011;64762;52.006;8.424;2023-01-28T15:35:27;17.95;;;8.43;;
76063;SDS011;64762;52.006;8.424;2023-01-28T15:37:52;18.33;;;8.63;;
76063;SDS011;64762;52.006;8.424;2023-01-28T15:40:18;17.70;;;9.37;;
76063;SDS011;64762;52.006;8.424;2023-01-28T15:42:45;24.05;;;11.00;;
76063;SDS011;64762;52.006;8.424;2023-01-28T15:45:15;28.48;;;11.57;;
76063;SDS011;64762;52.006;8.424;2023-01-28T15:47:42;24.42;;;11.27;;
76063;SDS011;64762;52.006;8.424;2023-01-28T15:50:07;19.98;;;9.82;;
76063;SDS011;64762;52.006;8.424;2023-01-28T15:52:41;18.52;;;10.13;;
76063;SDS011;64762;52.006;8.424;2023-01-28T15:55:26;33.90;;;12.85;;
76063;SDS011;64762;52.006;8.424;2023-01-28T15:57:54;21.42;;;9.48;;
76063;SDS011;64762;52.006;8.424;2023-01-28T16:00:20;18.83;;;9.23;;
76063;SDS011;64762;52.006;8.424;2023-01-28T16:02:46;16.13;;;8.48;;
76063;SDS011;64762;52.006;8.424;2023-01-28T16:05:27;14.15;;;7.53;;
76063;SDS011;64762;52.006;8.424;2023-01-28T16:08:03;15.82;;;9.07;;
76063;SDS011;64762;52.006;8.424;2023-01-28T16:10:32;14.02;;;7.07;;
76063;SDS011;64762;52.006;8.424;2023-01-28T16:13:03;13.63;;;7.67;;
76063;SDS011;64762;52.006;8.424;2023-01-28T16:15:31;15.25;;;8.40;;
76063;SDS011;64762;52.006;8.424;2023-01-28T16:17:56;18.15;;;8.23;;
76063;SDS011;64762;52.006;8.424;2023-01-28T16:20:26;14.57;;;6.77;;
76063;SDS011;64762;52.006;8.424;2023-01-28T16:22:53;15.55;;;6.85;;
76063;SDS011;64762;52.006;8.424;2023-01-28T16:27:44;17.70;;;7.63;;
76063;SDS011;64762;52.006;8.424;2023-01-28T16:30:10;17.07;;;7.80;;
76063;SDS011;64762;52.006;8.424;2023-01-28T16:32:36;15.40;;;7.82;;
76063;SDS011;64762;52.006;8.424;2023-01-28T16:35:03;13.80;;;6.97;;
76063;SDS011;64762;52.006;8.424;2023-01-28T16:37:49;14.40;;;7.35;;
76063;SDS011;64762;52.006;8.424;2023-01-28T16:40:16;19.60;;;9.13;;
76063;SDS011;64762;52.006;8.424;2023-01-28T16:42:42;20.17;;;8.07;;
76063;SDS011;64762;52.006;8.424;2023-01-28T16:45:16;19.60;;;8.20;;